sensor_id;sensor_type;location;lat;lon;timestamp;temperature;humidity
18690;DHT22;9782;52.930;15.562;2022-08-21T00:01:41;20.00;99.90
18690;DHT22;9782;52.930;15.562;2022-08-21T00:04:09;20.00;1.00
18690;DHT22;9782;52.930;15.562;2022-08-21T00:06:36;20.00;99.90
18690;DHT22;9782;52.930;15.562;2022-08-21T00:09:06;20.00;99.90
18690;DHT22;9782;52.930;15.562;2022-08-21T00:11:35;20.00;99.90
18690;DHT22;9782;52.930;15.562;2022-08-21T00:14:03;19.90;1.00
18690;DHT22;9782;52.930;15.562;2022-08-21T00:16:30;19.90;1.00
18690;DHT22;9782;52.930;15.562;2022-08-21T00:18:59;19.90;1.00
18690;DHT22;9782;52.930;15.562;2022-08-21T00:21:26;19.90;99.90
18690;DHT22;9782;52.930;15.562;2022-08-21T00:23:53;19.90;1.00
18690;DHT22;9782;52.930;15.562;2022-08-21T00:26:21;19.90;99.90
18690;DHT22;9782;52.930;15.562;2022-08-21T00:28:48;19.90;69.30
18690;DHT22;9782;52.930;15.562;2022-08-21T00:31:15;19.90;1.00
18690;DHT22;9782;52.930;15.562;2022-08-21T00:33:43;19.90;1.00
18690;DHT22;9782;52.930;15.562;2022-08-21T00:36:12;19.90;99.90
18690;DHT22;9782;52.930;15.562;2022-08-21T00:38:39;19.90;1.00
18690;DHT22;9782;52.930;15.562;2022-08-21T00:41:08;19.90;1.00
18690;DHT22;9782;52.930;15.562;2022-08-21T00:43:37;19.90;1.00
18690;DHT22;9782;52.930;15.562;2022-08-21T00:46:05;19.90;1.00
18690;DHT22;9782;52.930;15.562;2022-08-21T00:48:33;19.80;1.00
18690;DHT22;9782;52.930;15.562;2022-08-21T00:51:04;19.90;1.00
18690;DHT22;9782;52.930;15.562;2022-08-21T00:53:36;19.80;1.00
18690;DHT22;9782;52.930;15.562;2022-08-21T00:56:05;19.80;99.90
18690;DHT22;9782;52.930;15.562;2022-08-21T00:58:34;19.90;99.90
18690;DHT22;9782;52.930;15.562;2022-08-21T01:01:04;19.90;99.90
18690;DHT22;9782;52.930;15.562;2022-08-21T01:03:33;19.80;57.60
18690;DHT22;9782;52.930;15.562;2022-08-21T01:06:01;19.90;99.90
18690;DHT22;9782;52.930;15.562;2022-08-21T01:08:28;19.90;99.90
18690;DHT22;9782;52.930;15.562;2022-08-21T01:10:58;19.90;1.00
18690;DHT22;9782;52.930;15.562;2022-08-21T01:13:27;19.90;99.90
18690;DHT22;9782;52.930;15.562;2022-08-21T01:15:58;19.80;99.90
18690;DHT22;9782;52.930;15.562;2022-08-21T01:18:27;19.80;99.90
18690;DHT22;9782;52.930;15.562;2022-08-21T01:21:14;19.80;99.90
18690;DHT22;9782;52.930;15.562;2022-08-21T01:23:50;19.80;99.90
18690;DHT22;9782;52.930;15.562;2022-08-21T01:26:22;19.80;99.90
18690;DHT22;9782;52.930;15.562;2022-08-21T01:28:56;19.80;99.90
18690;DHT22;9782;52.930;15.562;2022-08-21T01:31:26;19.80;1.00
18690;DHT22;9782;52.930;15.562;2022-08-21T01:33:54;19.80;1.00
18690;DHT22;9782;52.930;15.562;2022-08-21T01:36:23;19.70;1.00
18690;DHT22;9782;52.930;15.562;2022-08-21T01:38:50;19.70;1.00
18690;DHT22;9782;52.930;15.562;2022-08-21T01:41:17;19.70;1.00
18690;DHT22;9782;52.930;15.562;2022-08-21T01:43:44;19.70;1.00
18690;DHT22;9782;52.930;15.562;2022-08-21T01:46:13;19.70;99.90
18690;DHT22;9782;52.930;15.562;2022-08-21T01:48:40;19.60;1.00
18690;DHT22;9782;52.930;15.562;2022-08-21T01:51:08;19.60;1.00
18690;DHT22;9782;52.930;15.562;2022-08-21T01:53:36;19.60;99.90
18690;DHT22;9782;52.930;15.562;2022-08-21T01:56:06;19.60;1.00
18690;DHT22;9782;52.930;15.562;2022-08-21T01:58:34;19.50;99.90
18690;DHT22;9782;52.930;15.562;2022-08-21T02:01:02;19.50;99.90
18690;DHT22;9782;52.930;15.562;2022-08-21T02:03:30;19.50;99.90
18690;DHT22;9782;52.930;15.562;2022-08-21T02:05:57;19.40;99.90
18690;DHT22;9782;52.930;15.562;2022-08-21T02:08:24;19.40;99.90
18690;DHT22;9782;52.930;15.562;2022-08-21T02:10:53;19.40;1.00
18690;DHT22;9782;52.930;15.562;2022-08-21T02:13:20;19.40;42.00
18690;DHT22;9782;52.930;15.562;2022-08-21T02:15:47;19.30;1.00
18690;DHT22;9782;52.930;15.562;2022-08-21T02:18:14;19.30;1.00
18690;DHT22;9782;52.930;15.562;2022-08-21T02:20:45;19.30;99.90
18690;DHT22;9782;52.930;15.562;2022-08-21T02:23:13;19.20;99.90
18690;DHT22;9782;52.930;15.562;2022-08-21T02:25:41;19.20;99.90
18690;DHT22;9782;52.930;15.562;2022-08-21T02:28:11;19.10;99.90
18690;DHT22;9782;52.930;15.562;2022-08-21T02:30:42;19.10;99.90
18690;DHT22;9782;52.930;15.562;2022-08-21T02:33:10;19.10;99.90
18690;DHT22;9782;52.930;15.562;2022-08-21T02:35:38;19.10;56.50
18690;DHT22;9782;52.930;15.562;2022-08-21T02:38:10;19.00;99.90
18690;DHT22;9782;52.930;15.562;2022-08-21T02:40:39;19.00;50.30
18690;DHT22;9782;52.930;15.562;2022-08-21T02:43:06;19.00;5.40
18690;DHT22;9782;52.930;15.562;2022-08-21T02:45:36;19.00;99.90
18690;DHT22;9782;52.930;15.562;2022-08-21T02:48:05;18.90;39.20
18690;DHT22;9782;52.930;15.562;2022-08-21T02:50:35;18.90;87.50
18690;DHT22;9782;52.930;15.562;2022-08-21T02:53:03;18.90;1.00
18690;DHT22;9782;52.930;15.562;2022-08-21T02:55:32;18.90;1.00
18690;DHT22;9782;52.930;15.562;2022-08-21T02:58:01;18.80;1.00
18690;DHT22;9782;52.930;15.562;2022-08-21T03:00:30;18.80;1.00
18690;DHT22;9782;52.930;15.562;2022-08-21T03:02:59;18.80;1.00
18690;DHT22;9782;52.930;15.562;2022-08-21T03:05:29;18.80;99.90
18690;DHT22;9782;52.930;15.562;2022-08-21T03:07:58;18.80;99.90
18690;DHT22;9782;52.930;15.562;2022-08-21T03:10:26;18.80;33.40
18690;DHT22;9782;52.930;15.562;2022-08-21T03:12:53;18.70;1.00
18690;DHT22;9782;52.930;15.562;2022-08-21T03:15:22;18.70;1.00
18690;DHT22;9782;52.930;15.562;2022-08-21T03:17:51;18.60;1.00
18690;DHT22;9782;52.930;15.562;2022-08-21T03:20:24;18.70;1.00
18690;DHT22;9782;52.930;15.562;2022-08-21T03:22:53;18.60;1.00
18690;DHT22;9782;52.930;15.562;2022-08-21T03:25:21;18.70;1.00
18690;DHT22;9782;52.930;15.562;2022-08-21T03:27:48;18.60;1.00
18690;DHT22;9782;52.930;15.562;2022-08-21T03:30:17;18.60;1.00
18690;DHT22;9782;52.930;15.562;2022-08-21T03:32:44;18.60;1.00
18690;DHT22;9782;52.930;15.562;2022-08-21T03:35:11;18.60;1.00
18690;DHT22;9782;52.930;15.562;2022-08-21T03:37:40;18.50;1.00
18690;DHT22;9782;52.930;15.562;2022-08-21T03:40:10;18.50;1.00
18690;DHT22;9782;52.930;15.562;2022-08-21T03:42:38;18.50;1.00
18690;DHT22;9782;52.930;15.562;2022-08-21T03:45:06;18.50;1.00
18690;DHT22;9782;52.930;15.562;2022-08-21T03:47:33;18.50;1.00
18690;DHT22;9782;52.930;15.562;2022-08-21T03:50:00;18.50;1.00
18690;DHT22;9782;52.930;15.562;2022-08-21T03:52:27;18.50;1.00
18690;DHT22;9782;52.930;15.562;2022-08-21T03:54:56;18.50;1.00
18690;DHT22;9782;52.930;15.562;2022-08-21T03:57:23;18.40;1.00
18690;DHT22;9782;52.930;15.562;2022-08-21T03:59:50;18.40;1.00
18690;DHT22;9782;52.930;15.562;2022-08-21T04:02:21;18.40;1.00
18690;DHT22;9782;52.930;15.562;2022-08-21T04:04:48;18.40;1.00
18690;DHT22;9782;52.930;15.562;2022-08-21T04:07:15;18.40;1.00
18690;DHT22;9782;52.930;15.562;2022-08-21T04:09:44;18.40;1.00
18690;DHT22;9782;52.930;15.562;2022-08-21T04:12:12;18.40;1.00
18690;DHT22;9782;52.930;15.562;2022-08-21T04:14:39;18.30;1.00
18690;DHT22;9782;52.930;15.562;2022-08-21T04:17:07;18.30;1.00
18690;DHT22;9782;52.930;15.562;2022-08-21T04:19:34;18.30;1.00
18690;DHT22;9782;52.930;15.562;2022-08-21T04:22:01;18.30;1.00
18690;DHT22;9782;52.930;15.562;2022-08-21T04:24:28;18.30;1.00
18690;DHT22;9782;52.930;15.562;2022-08-21T04:26:55;18.30;1.00
18690;DHT22;9782;52.930;15.562;2022-08-21T04:29:23;18.20;1.00
18690;DHT22;9782;52.930;15.562;2022-08-21T04:31:50;18.20;99.90
18690;DHT22;9782;52.930;15.562;2022-08-21T04:34:18;18.20;99.90
18690;DHT22;9782;52.930;15.562;2022-08-21T04:36:45;18.20;99.90
18690;DHT22;9782;52.930;15.562;2022-08-21T04:39:12;18.20;99.90
18690;DHT22;9782;52.930;15.562;2022-08-21T04:41:40;18.20;99.90
18690;DHT22;9782;52.930;15.562;2022-08-21T04:44:31;18.20;99.90
18690;DHT22;9782;52.930;15.562;2022-08-21T04:48:10;18.20;99.90
18690;DHT22;9782;52.930;15.562;2022-08-21T04:50:45;18.20;99.90
18690;DHT22;9782;52.930;15.562;2022-08-21T04:53:55;18.20;1.00
18690;DHT22;9782;52.930;15.562;2022-08-21T04:56:30;18.20;1.00
18690;DHT22;9782;52.930;15.562;2022-08-21T04:59:01;18.20;1.00
18690;DHT22;9782;52.930;15.562;2022-08-21T05:01:42;18.30;1.00
18690;DHT22;9782;52.930;15.562;2022-08-21T05:04:12;18.20;1.00
18690;DHT22;9782;52.930;15.562;2022-08-21T05:06:44;18.20;99.90
18690;DHT22;9782;52.930;15.562;2022-08-21T05:09:14;18.20;80.90
18690;DHT22;9782;52.930;15.562;2022-08-21T05:11:42;18.20;99.90
18690;DHT22;9782;52.930;15.562;2022-08-21T05:14:12;18.30;99.90
18690;DHT22;9782;52.930;15.562;2022-08-21T05:16:44;18.30;99.90
18690;DHT22;9782;52.930;15.562;2022-08-21T05:19:12;18.30;1.00
18690;DHT22;9782;52.930;15.562;2022-08-21T05:21:57;18.30;1.00
18690;DHT22;9782;52.930;15.562;2022-08-21T05:24:34;18.30;99.90
18690;DHT22;9782;52.930;15.562;2022-08-21T05:27:06;18.20;92.30
18690;DHT22;9782;52.930;15.562;2022-08-21T05:29:40;18.30;1.00
18690;DHT22;9782;52.930;15.562;2022-08-21T05:32:09;18.30;99.90
18690;DHT22;9782;52.930;15.562;2022-08-21T05:34:36;18.30;99.90
18690;DHT22;9782;52.930;15.562;2022-08-21T05:37:05;18.30;1.00
18690;DHT22;9782;52.930;15.562;2022-08-21T05:39:32;18.30;1.00
18690;DHT22;9782;52.930;15.562;2022-08-21T05:41:59;18.30;99.90
18690;DHT22;9782;52.930;15.562;2022-08-21T05:44:27;18.40;99.90
18690;DHT22;9782;52.930;15.562;2022-08-21T05:46:54;18.30;99.90
18690;DHT22;9782;52.930;15.562;2022-08-21T05:49:21;18.30;1.00
18690;DHT22;9782;52.930;15.562;2022-08-21T05:51:48;18.40;1.00
18690;DHT22;9782;52.930;15.562;2022-08-21T05:54:16;18.50;1.00
18690;DHT22;9782;52.930;15.562;2022-08-21T05:56:47;18.50;1.00
18690;DHT22;9782;52.930;15.562;2022-08-21T05:59:28;18.60;1.00
18690;DHT22;9782;52.930;15.562;2022-08-21T06:02:04;18.60;1.00
18690;DHT22;9782;52.930;15.562;2022-08-21T06:04:45;18.60;1.00
18690;DHT22;9782;52.930;15.562;2022-08-21T06:07:24;18.70;99.90
18690;DHT22;9782;52.930;15.562;2022-08-21T06:10:10;18.70;1.00
18690;DHT22;9782;52.930;15.562;2022-08-21T06:12:44;18.80;99.90
18690;DHT22;9782;52.930;15.562;2022-08-21T06:15:15;18.80;1.00
18690;DHT22;9782;52.930;15.562;2022-08-21T06:20:27;18.90;1.00
18690;DHT22;9782;52.930;15.562;2022-08-21T06:22:54;18.90;1.00
18690;DHT22;9782;52.930;15.562;2022-08-21T06:25:23;18.90;1.00
18690;DHT22;9782;52.930;15.562;2022-08-21T06:27:50;18.90;99.90
18690;DHT22;9782;52.930;15.562;2022-08-21T06:30:18;18.90;99.90
18690;DHT22;9782;52.930;15.562;2022-08-21T06:32:45;18.90;1.00
18690;DHT22;9782;52.930;15.562;2022-08-21T06:35:13;19.00;1.00
18690;DHT22;9782;52.930;15.562;2022-08-21T06:37:52;19.00;1.00
18690;DHT22;9782;52.930;15.562;2022-08-21T06:40:19;19.00;99.90
18690;DHT22;9782;52.930;15.562;2022-08-21T06:42:48;19.00;1.00
18690;DHT22;9782;52.930;15.562;2022-08-21T06:45:15;19.10;1.00
18690;DHT22;9782;52.930;15.562;2022-08-21T06:47:43;19.10;1.00
18690;DHT22;9782;52.930;15.562;2022-08-21T06:50:11;19.20;1.00
18690;DHT22;9782;52.930;15.562;2022-08-21T06:53:04;19.20;1.00
18690;DHT22;9782;52.930;15.562;2022-08-21T06:55:32;19.20;1.00
18690;DHT22;9782;52.930;15.562;2022-08-21T06:58:01;19.30;1.00
18690;DHT22;9782;52.930;15.562;2022-08-21T07:00:29;19.30;99.90
18690;DHT22;9782;52.930;15.562;2022-08-21T07:02:56;19.30;1.00
18690;DHT22;9782;52.930;15.562;2022-08-21T07:05:25;19.40;1.00
18690;DHT22;9782;52.930;15.562;2022-08-21T07:07:52;19.40;1.00
18690;DHT22;9782;52.930;15.562;2022-08-21T07:10:22;19.40;1.00
18690;DHT22;9782;52.930;15.562;2022-08-21T07:12:50;19.40;1.00
18690;DHT22;9782;52.930;15.562;2022-08-21T07:15:19;19.30;1.00
18690;DHT22;9782;52.930;15.562;2022-08-21T07:17:46;19.40;1.00
18690;DHT22;9782;52.930;15.562;2022-08-21T07:20:13;19.40;1.00
18690;DHT22;9782;52.930;15.562;2022-08-21T07:22:40;19.50;1.00
18690;DHT22;9782;52.930;15.562;2022-08-21T07:25:08;19.50;1.00
18690;DHT22;9782;52.930;15.562;2022-08-21T07:27:35;19.60;1.00
18690;DHT22;9782;52.930;15.562;2022-08-21T07:30:03;19.60;1.00
18690;DHT22;9782;52.930;15.562;2022-08-21T07:32:32;19.60;1.00
18690;DHT22;9782;52.930;15.562;2022-08-21T07:34:59;19.60;99.90
18690;DHT22;9782;52.930;15.562;2022-08-21T07:37:26;19.60;99.90
18690;DHT22;9782;52.930;15.562;2022-08-21T07:39:53;19.60;40.00
18690;DHT22;9782;52.930;15.562;2022-08-21T07:42:20;19.50;99.90
18690;DHT22;9782;52.930;15.562;2022-08-21T07:44:47;19.50;1.00
18690;DHT22;9782;52.930;15.562;2022-08-21T07:47:14;19.40;99.90
18690;DHT22;9782;52.930;15.562;2022-08-21T07:49:42;19.40;1.00
18690;DHT22;9782;52.930;15.562;2022-08-21T07:52:16;19.40;1.00
18690;DHT22;9782;52.930;15.562;2022-08-21T07:54:43;19.50;75.40
18690;DHT22;9782;52.930;15.562;2022-08-21T07:57:10;19.60;99.90
18690;DHT22;9782;52.930;15.562;2022-08-21T07:59:37;19.60;99.90
18690;DHT22;9782;52.930;15.562;2022-08-21T08:02:04;19.80;99.90
18690;DHT22;9782;52.930;15.562;2022-08-21T08:04:31;19.80;32.90
18690;DHT22;9782;52.930;15.562;2022-08-21T08:06:59;19.90;99.90
18690;DHT22;9782;52.930;15.562;2022-08-21T08:09:26;20.00;99.90
18690;DHT22;9782;52.930;15.562;2022-08-21T08:11:53;20.10;1.00
18690;DHT22;9782;52.930;15.562;2022-08-21T08:14:20;20.10;1.00
18690;DHT22;9782;52.930;15.562;2022-08-21T08:16:48;20.20;99.90
18690;DHT22;9782;52.930;15.562;2022-08-21T08:19:15;20.20;99.90
18690;DHT22;9782;52.930;15.562;2022-08-21T08:21:42;20.20;1.00
18690;DHT22;9782;52.930;15.562;2022-08-21T08:24:10;20.20;1.00
18690;DHT22;9782;52.930;15.562;2022-08-21T08:26:37;20.30;99.90
18690;DHT22;9782;52.930;15.562;2022-08-21T08:29:04;20.30;99.90
18690;DHT22;9782;52.930;15.562;2022-08-21T08:31:31;20.30;1.00
18690;DHT22;9782;52.930;15.562;2022-08-21T08:33:59;20.30;1.00
18690;DHT22;9782;52.930;15.562;2022-08-21T08:36:32;20.30;1.00
18690;DHT22;9782;52.930;15.562;2022-08-21T08:38:59;20.30;1.00
18690;DHT22;9782;52.930;15.562;2022-08-21T08:41:29;20.30;31.90
18690;DHT22;9782;52.930;15.562;2022-08-21T08:44:00;20.30;1.00
18690;DHT22;9782;52.930;15.562;2022-08-21T08:46:33;20.40;99.90
18690;DHT22;9782;52.930;15.562;2022-08-21T08:49:06;20.40;99.90
18690;DHT22;9782;52.930;15.562;2022-08-21T08:51:39;20.40;1.00
18690;DHT22;9782;52.930;15.562;2022-08-21T08:54:11;20.40;1.00
18690;DHT22;9782;52.930;15.562;2022-08-21T08:56:40;20.40;1.00
18690;DHT22;9782;52.930;15.562;2022-08-21T08:59:13;20.40;1.00
18690;DHT22;9782;52.930;15.562;2022-08-21T09:01:42;20.40;99.90
18690;DHT22;9782;52.930;15.562;2022-08-21T09:04:09;20.40;99.90
18690;DHT22;9782;52.930;15.562;2022-08-21T09:06:51;20.40;99.90
18690;DHT22;9782;52.930;15.562;2022-08-21T09:09:28;20.50;98.20
18690;DHT22;9782;52.930;15.562;2022-08-21T09:12:08;20.50;99.90
18690;DHT22;9782;52.930;15.562;2022-08-21T09:14:50;20.60;99.90
18690;DHT22;9782;52.930;15.562;2022-08-21T09:17:35;20.60;1.00
18690;DHT22;9782;52.930;15.562;2022-08-21T09:20:17;20.60;63.50
18690;DHT22;9782;52.930;15.562;2022-08-21T09:22:56;20.60;1.00
18690;DHT22;9782;52.930;15.562;2022-08-21T09:25:27;20.70;1.00
18690;DHT22;9782;52.930;15.562;2022-08-21T09:27:56;20.70;1.00
18690;DHT22;9782;52.930;15.562;2022-08-21T09:30:26;20.70;1.00
18690;DHT22;9782;52.930;15.562;2022-08-21T09:32:54;20.70;1.00
18690;DHT22;9782;52.930;15.562;2022-08-21T09:35:22;20.80;1.00
18690;DHT22;9782;52.930;15.562;2022-08-21T09:37:52;20.90;1.00
18690;DHT22;9782;52.930;15.562;2022-08-21T09:40:36;21.00;1.00
18690;DHT22;9782;52.930;15.562;2022-08-21T09:43:13;21.10;1.00
18690;DHT22;9782;52.930;15.562;2022-08-21T09:45:44;21.20;1.00
18690;DHT22;9782;52.930;15.562;2022-08-21T09:48:13;21.30;1.00
18690;DHT22;9782;52.930;15.562;2022-08-21T09:50:42;21.40;1.00
18690;DHT22;9782;52.930;15.562;2022-08-21T09:53:17;21.40;99.90
18690;DHT22;9782;52.930;15.562;2022-08-21T09:59:38;21.60;99.90
18690;DHT22;9782;52.930;15.562;2022-08-21T10:09:30;21.60;99.90
18690;DHT22;9782;52.930;15.562;2022-08-21T10:12:06;21.50;99.90
18690;DHT22;9782;52.930;15.562;2022-08-21T10:24:38;21.50;1.00
18690;DHT22;9782;52.930;15.562;2022-08-21T10:27:28;21.50;1.00
18690;DHT22;9782;52.930;15.562;2022-08-21T10:30:08;21.50;1.00
18690;DHT22;9782;52.930;15.562;2022-08-21T10:33:31;21.50;1.00
18690;DHT22;9782;52.930;15.562;2022-08-21T10:36:18;21.50;1.00
18690;DHT22;9782;52.930;15.562;2022-08-21T10:38:57;21.60;1.00
18690;DHT22;9782;52.930;15.562;2022-08-21T10:41:59;21.60;1.00
18690;DHT22;9782;52.930;15.562;2022-08-21T10:44:51;21.60;1.00
18690;DHT22;9782;52.930;15.562;2022-08-21T10:47:40;21.60;99.90
18690;DHT22;9782;52.930;15.562;2022-08-21T10:50:14;21.60;1.00
18690;DHT22;9782;52.930;15.562;2022-08-21T10:53:09;21.70;1.00
18690;DHT22;9782;52.930;15.562;2022-08-21T10:55:46;21.70;1.00
18690;DHT22;9782;52.930;15.562;2022-08-21T10:58:21;21.70;1.00
18690;DHT22;9782;52.930;15.562;2022-08-21T11:00:53;21.70;99.90
18690;DHT22;9782;52.930;15.562;2022-08-21T11:03:39;21.60;1.00
18690;DHT22;9782;52.930;15.562;2022-08-21T11:06:14;21.60;99.90
18690;DHT22;9782;52.930;15.562;2022-08-21T11:08:55;21.60;1.00
18690;DHT22;9782;52.930;15.562;2022-08-21T11:11:27;21.60;89.20
18690;DHT22;9782;52.930;15.562;2022-08-21T11:14:00;21.60;16.00
18690;DHT22;9782;52.930;15.562;2022-08-21T11:16:36;21.60;1.00
18690;DHT22;9782;52.930;15.562;2022-08-21T11:19:07;21.70;1.00
18690;DHT22;9782;52.930;15.562;2022-08-21T11:21:39;21.60;1.00
18690;DHT22;9782;52.930;15.562;2022-08-21T11:24:22;21.50;1.00
18690;DHT22;9782;52.930;15.562;2022-08-21T11:26:57;21.60;1.00
18690;DHT22;9782;52.930;15.562;2022-08-21T11:29:30;21.60;1.00
18690;DHT22;9782;52.930;15.562;2022-08-21T11:32:15;21.60;1.00
18690;DHT22;9782;52.930;15.562;2022-08-21T11:34:57;21.60;1.00
18690;DHT22;9782;52.930;15.562;2022-08-21T11:37:44;21.70;1.00
18690;DHT22;9782;52.930;15.562;2022-08-21T11:40:31;21.70;1.00
18690;DHT22;9782;52.930;15.562;2022-08-21T11:43:21;21.70;1.00
18690;DHT22;9782;52.930;15.562;2022-08-21T11:45:53;21.70;99.90
18690;DHT22;9782;52.930;15.562;2022-08-21T11:48:52;21.60;99.90
18690;DHT22;9782;52.930;15.562;2022-08-21T11:51:33;21.60;99.90
18690;DHT22;9782;52.930;15.562;2022-08-21T11:54:09;21.50;1.00
18690;DHT22;9782;52.930;15.562;2022-08-21T11:56:46;21.50;99.90
18690;DHT22;9782;52.930;15.562;2022-08-21T11:59:19;21.50;99.90
18690;DHT22;9782;52.930;15.562;2022-08-21T12:02:13;21.40;99.90
18690;DHT22;9782;52.930;15.562;2022-08-21T12:04:46;21.40;99.90
18690;DHT22;9782;52.930;15.562;2022-08-21T12:07:17;21.40;1.00
18690;DHT22;9782;52.930;15.562;2022-08-21T12:09:53;21.30;1.00
18690;DHT22;9782;52.930;15.562;2022-08-21T12:12:26;21.30;1.00
18690;DHT22;9782;52.930;15.562;2022-08-21T12:18:00;21.30;1.00
18690;DHT22;9782;52.930;15.562;2022-08-21T12:20:41;21.30;1.00
18690;DHT22;9782;52.930;15.562;2022-08-21T12:23:29;21.30;99.90
18690;DHT22;9782;52.930;15.562;2022-08-21T12:26:17;21.20;99.90
18690;DHT22;9782;52.930;15.562;2022-08-21T12:28:47;21.20;99.90
18690;DHT22;9782;52.930;15.562;2022-08-21T12:31:23;21.20;1.00
18690;DHT22;9782;52.930;15.562;2022-08-21T12:33:56;21.20;99.90
18690;DHT22;9782;52.930;15.562;2022-08-21T12:36:27;21.30;99.90
18690;DHT22;9782;52.930;15.562;2022-08-21T12:38:59;21.30;99.90
18690;DHT22;9782;52.930;15.562;2022-08-21T12:41:30;21.40;1.00
18690;DHT22;9782;52.930;15.562;2022-08-21T12:44:00;21.40;99.90
18690;DHT22;9782;52.930;15.562;2022-08-21T12:46:34;21.50;99.90
18690;DHT22;9782;52.930;15.562;2022-08-21T12:49:08;21.60;1.00
18690;DHT22;9782;52.930;15.562;2022-08-21T12:51:50;21.70;99.90
18690;DHT22;9782;52.930;15.562;2022-08-21T12:54:26;21.80;1.00
18690;DHT22;9782;52.930;15.562;2022-08-21T12:56:58;22.00;1.00
18690;DHT22;9782;52.930;15.562;2022-08-21T12:59:25;22.10;1.00
18690;DHT22;9782;52.930;15.562;2022-08-21T13:01:53;22.20;1.00
18690;DHT22;9782;52.930;15.562;2022-08-21T13:04:32;22.30;1.00
18690;DHT22;9782;52.930;15.562;2022-08-21T13:07:00;22.40;1.00
18690;DHT22;9782;52.930;15.562;2022-08-21T13:09:29;22.50;99.90
18690;DHT22;9782;52.930;15.562;2022-08-21T13:11:57;22.60;99.90
18690;DHT22;9782;52.930;15.562;2022-08-21T13:14:29;22.60;99.90
18690;DHT22;9782;52.930;15.562;2022-08-21T13:16:58;22.70;99.90
18690;DHT22;9782;52.930;15.562;2022-08-21T13:19:27;22.80;99.90
18690;DHT22;9782;52.930;15.562;2022-08-21T13:21:55;22.80;68.70
18690;DHT22;9782;52.930;15.562;2022-08-21T13:24:25;22.80;1.00
18690;DHT22;9782;52.930;15.562;2022-08-21T13:26:53;22.80;28.70
18690;DHT22;9782;52.930;15.562;2022-08-21T13:29:22;22.80;99.90
18690;DHT22;9782;52.930;15.562;2022-08-21T13:31:53;22.80;1.00
18690;DHT22;9782;52.930;15.562;2022-08-21T13:34:22;22.70;1.00
18690;DHT22;9782;52.930;15.562;2022-08-21T13:36:52;22.60;1.00
18690;DHT22;9782;52.930;15.562;2022-08-21T13:39:21;22.40;1.00
18690;DHT22;9782;52.930;15.562;2022-08-21T13:41:53;22.30;1.00
18690;DHT22;9782;52.930;15.562;2022-08-21T13:44:23;22.30;1.00
18690;DHT22;9782;52.930;15.562;2022-08-21T13:46:53;22.30;1.00
18690;DHT22;9782;52.930;15.562;2022-08-21T13:49:26;22.40;1.00
18690;DHT22;9782;52.930;15.562;2022-08-21T13:51:55;22.40;1.00
18690;DHT22;9782;52.930;15.562;2022-08-21T13:54:24;22.40;1.00
18690;DHT22;9782;52.930;15.562;2022-08-21T13:56:53;22.40;1.00
18690;DHT22;9782;52.930;15.562;2022-08-21T13:59:26;22.50;1.00
18690;DHT22;9782;52.930;15.562;2022-08-21T14:01:55;22.60;1.00
18690;DHT22;9782;52.930;15.562;2022-08-21T14:04:32;22.50;1.00
18690;DHT22;9782;52.930;15.562;2022-08-21T14:07:02;22.50;1.00
18690;DHT22;9782;52.930;15.562;2022-08-21T14:09:32;22.50;1.00
18690;DHT22;9782;52.930;15.562;2022-08-21T14:12:02;22.50;1.00
18690;DHT22;9782;52.930;15.562;2022-08-21T14:14:31;22.40;1.00
18690;DHT22;9782;52.930;15.562;2022-08-21T14:17:00;22.50;1.00
18690;DHT22;9782;52.930;15.562;2022-08-21T14:19:35;22.40;1.00
18690;DHT22;9782;52.930;15.562;2022-08-21T14:22:30;22.40;1.00
18690;DHT22;9782;52.930;15.562;2022-08-21T14:25:03;22.50;1.00
18690;DHT22;9782;52.930;15.562;2022-08-21T14:27:32;22.50;1.00
18690;DHT22;9782;52.930;15.562;2022-08-21T14:30:01;22.60;1.00
18690;DHT22;9782;52.930;15.562;2022-08-21T14:32:36;22.50;1.00
18690;DHT22;9782;52.930;15.562;2022-08-21T14:35:05;22.50;1.00
18690;DHT22;9782;52.930;15.562;2022-08-21T14:37:34;22.40;1.00
18690;DHT22;9782;52.930;15.562;2022-08-21T14:40:03;22.40;1.00
18690;DHT22;9782;52.930;15.562;2022-08-21T14:42:30;22.40;1.00
18690;DHT22;9782;52.930;15.562;2022-08-21T14:45:00;22.40;1.00
18690;DHT22;9782;52.930;15.562;2022-08-21T14:47:27;22.40;1.00
18690;DHT22;9782;52.930;15.562;2022-08-21T14:49:55;22.30;1.00
18690;DHT22;9782;52.930;15.562;2022-08-21T14:52:22;22.30;1.00
18690;DHT22;9782;52.930;15.562;2022-08-21T14:54:51;22.30;1.00
18690;DHT22;9782;52.930;15.562;2022-08-21T14:57:18;22.30;1.00
18690;DHT22;9782;52.930;15.562;2022-08-21T14:59:45;22.40;1.00
18690;DHT22;9782;52.930;15.562;2022-08-21T15:02:12;22.40;1.00
18690;DHT22;9782;52.930;15.562;2022-08-21T15:04:39;22.40;1.00
18690;DHT22;9782;52.930;15.562;2022-08-21T15:07:07;22.40;1.00
18690;DHT22;9782;52.930;15.562;2022-08-21T15:09:34;22.40;1.00
18690;DHT22;9782;52.930;15.562;2022-08-21T15:12:04;22.40;1.00
18690;DHT22;9782;52.930;15.562;2022-08-21T15:14:35;22.30;1.00
18690;DHT22;9782;52.930;15.562;2022-08-21T15:17:03;22.30;1.00
18690;DHT22;9782;52.930;15.562;2022-08-21T15:19:32;22.20;1.00
18690;DHT22;9782;52.930;15.562;2022-08-21T15:21:59;22.20;1.00
18690;DHT22;9782;52.930;15.562;2022-08-21T15:24:26;22.20;1.00
18690;DHT22;9782;52.930;15.562;2022-08-21T15:26:54;22.20;1.00
18690;DHT22;9782;52.930;15.562;2022-08-21T15:29:23;22.20;1.00
18690;DHT22;9782;52.930;15.562;2022-08-21T15:31:52;22.20;1.00
18690;DHT22;9782;52.930;15.562;2022-08-21T15:34:20;22.20;1.00
18690;DHT22;9782;52.930;15.562;2022-08-21T15:36:48;22.30;1.00
18690;DHT22;9782;52.930;15.562;2022-08-21T15:39:15;22.30;1.00
18690;DHT22;9782;52.930;15.562;2022-08-21T15:41:42;22.30;1.00
18690;DHT22;9782;52.930;15.562;2022-08-21T15:44:10;22.40;1.00
18690;DHT22;9782;52.930;15.562;2022-08-21T15:46:40;22.30;1.00
18690;DHT22;9782;52.930;15.562;2022-08-21T15:49:11;22.30;1.00
18690;DHT22;9782;52.930;15.562;2022-08-21T15:51:39;22.30;1.00
18690;DHT22;9782;52.930;15.562;2022-08-21T15:54:07;22.30;1.00
18690;DHT22;9782;52.930;15.562;2022-08-21T15:56:36;22.30;1.00
18690;DHT22;9782;52.930;15.562;2022-08-21T15:59:06;22.30;1.00
18690;DHT22;9782;52.930;15.562;2022-08-21T16:01:35;22.30;1.00
18690;DHT22;9782;52.930;15.562;2022-08-21T16:04:05;22.40;1.00
18690;DHT22;9782;52.930;15.562;2022-08-21T16:06:33;22.40;1.00
18690;DHT22;9782;52.930;15.562;2022-08-21T16:09:00;22.40;1.00
18690;DHT22;9782;52.930;15.562;2022-08-21T16:11:28;22.40;1.00
18690;DHT22;9782;52.930;15.562;2022-08-21T16:13:55;22.40;1.00
18690;DHT22;9782;52.930;15.562;2022-08-21T16:16:23;22.40;1.00
18690;DHT22;9782;52.930;15.562;2022-08-21T16:18:51;22.30;1.00
18690;DHT22;9782;52.930;15.562;2022-08-21T16:21:21;22.30;1.00
18690;DHT22;9782;52.930;15.562;2022-08-21T16:23:48;22.20;1.00
18690;DHT22;9782;52.930;15.562;2022-08-21T16:26:16;22.20;1.00
18690;DHT22;9782;52.930;15.562;2022-08-21T16:28:45;22.20;1.00
18690;DHT22;9782;52.930;15.562;2022-08-21T16:31:14;22.20;1.00
18690;DHT22;9782;52.930;15.562;2022-08-21T16:33:46;22.20;1.00